MiSS Stacie — WDF5915 — position and weather

sailwx.info

Track history (hours):
 
Tides and Currents Weather Stations Pressure Air Temp Water Temp Dewpoint Dewpoint Depression Visibility Wind Speed Wind Dir Waves Ship Positions

MiSS Stacie

Owner: Crosby Marine Transportation LLC, Golden Meadow, LA. More information available from US FCC via Universal Licensing System and Coast Guard Vessel Documentation Center.

Last reported at 2016-Jan-26 09:33 UTC. Time now 2016-Feb-10 12:53 UTC.
Position N 29°32' W 090°48'.
Warning: this ship's position is 15 days out of date.

Length 20 m; draft 2 m.

Type: Tug. MMSI: 367468640.

Date/timePositionNaut miles runAvg speedWind from/ knotsBaromVisibWave heightAir tempDewpointWater temp
2016-Jan-26 09:33N 29°32' W 090°48'5 5.4
2016-Jan-26 08:33N 29°35' W 090°43'3 3.0
2016-Jan-26 07:33N 29°36' W 090°40'6 6.3
2016-Jan-26 06:32N 29°34' W 090°33'  
2016-Jan-21 01:33N 29°34' W 090°34'7 7.4
2016-Jan-21 00:33N 29°37' W 090°42'3 3.0
2016-Jan-20 23:33N 29°34' W 090°43'1 1.3
2016-Jan-20 22:33N 29°33' W 090°42'1 1.3
2016-Jan-20 21:33N 29°34' W 090°43'3 3.2
2016-Jan-20 20:33N 29°36' W 090°40'5 4.8
2016-Jan-20 19:32N 29°34' W 090°35'  
Track history (hours):
 
Tides and Currents Weather Stations Pressure Air Temp Water Temp Dewpoint Dewpoint Depression Visibility Wind Speed Wind Dir Waves Ship Positions

MiSS Stacie

Owner: Crosby Marine Transportation LLC, Golden Meadow, LA. More information available from US FCC via Universal Licensing System and Coast Guard Vessel Documentation Center.

Last reported at 2016-Jan-26 09:33 UTC. Time now 2016-Feb-10 12:53 UTC.
Position N 29°32' W 090°48'.
Warning: this ship's position is 15 days out of date.

Length 20 m; draft 2 m.

Type: Tug. MMSI: 367468640.

Date/timePositionNaut miles runAvg speedWind from/ knotsBaromVisibWave heightAir tempDewpointWater temp
2016-Jan-26 09:33N 29°32' W 090°48'5 5.4
2016-Jan-26 08:33N 29°35' W 090°43'3 3.0
2016-Jan-26 07:33N 29°36' W 090°40'6 6.3
2016-Jan-26 06:32N 29°34' W 090°33'  
2016-Jan-21 01:33N 29°34' W 090°34'7 7.4
2016-Jan-21 00:33N 29°37' W 090°42'3 3.0
2016-Jan-20 23:33N 29°34' W 090°43'1 1.3
2016-Jan-20 22:33N 29°33' W 090°42'1 1.3
2016-Jan-20 21:33N 29°34' W 090°43'3 3.2
2016-Jan-20 20:33N 29°36' W 090°40'5 4.8
2016-Jan-20 19:32N 29°34' W 090°35'  

Dump ship's entire track history